createdAt,value
2018-05-03T00:02:17.951Z,13.40
2018-05-03T00:04:45.851Z,13.40
2018-05-03T00:07:14.736Z,13.40
2018-05-03T00:09:43.395Z,13.40
2018-05-03T00:12:11.356Z,13.40
2018-05-03T00:14:39.279Z,13.40
2018-05-03T00:17:07.160Z,13.40
2018-05-03T00:19:35.105Z,13.40
2018-05-03T00:22:03.779Z,13.30
2018-05-03T00:24:32.812Z,13.30
2018-05-03T00:27:00.617Z,13.30
2018-05-03T00:29:28.393Z,13.30
2018-05-03T00:31:56.124Z,13.40
2018-05-03T00:34:23.902Z,13.40
2018-05-03T00:36:51.711Z,13.40
2018-05-03T00:39:21.127Z,13.30
2018-05-03T00:41:49.112Z,13.30
2018-05-03T00:44:17.421Z,13.40
2018-05-03T00:46:45.282Z,13.40
2018-05-03T00:49:13.207Z,13.40
2018-05-03T00:51:41.828Z,13.30
2018-05-03T00:54:21.728Z,13.30
2018-05-03T00:56:49.602Z,13.20
2018-05-03T00:59:17.421Z,13.30
2018-05-03T01:01:45.283Z,13.30
2018-05-03T01:04:13.021Z,13.20
2018-05-03T01:06:40.789Z,13.20
2018-05-03T01:09:08.691Z,13.10
2018-05-03T01:11:36.595Z,13.20
2018-05-03T01:14:04.452Z,13.10
2018-05-03T01:16:34.124Z,13.10
2018-05-03T01:19:02.016Z,13.00
2018-05-03T01:21:29.826Z,13.00
2018-05-03T01:23:57.836Z,13.00
2018-05-03T01:26:25.747Z,13.00
2018-05-03T01:28:54.767Z,13.00
2018-05-03T01:31:22.691Z,13.00
2018-05-03T01:33:51.317Z,13.00
2018-05-03T01:36:26.316Z,13.00
2018-05-03T01:38:54.908Z,13.10
2018-05-03T01:41:23.590Z,13.10
2018-05-03T01:43:52.275Z,13.10
2018-05-03T01:46:20.971Z,13.00
2018-05-03T01:48:48.906Z,13.00
2018-05-03T01:51:16.868Z,13.00
2018-05-03T01:53:45.503Z,13.00
2018-05-03T01:56:13.379Z,13.00
2018-05-03T01:58:41.308Z,13.00
2018-05-03T02:01:10.000Z,13.00
2018-05-03T02:03:37.899Z,13.00
2018-05-03T02:06:05.850Z,13.00
2018-05-03T02:08:33.748Z,13.00
2018-05-03T02:11:01.764Z,13.00
2018-05-03T02:13:30.486Z,12.90
2018-05-03T02:15:58.372Z,13.00
2018-05-03T02:18:26.278Z,12.90
2018-05-03T02:20:54.206Z,12.90
2018-05-03T02:23:22.097Z,12.90
2018-05-03T02:25:49.941Z,12.90
2018-05-03T02:28:17.850Z,12.90
2018-05-03T02:30:45.761Z,12.90
2018-05-03T02:33:13.600Z,12.90
2018-05-03T02:35:42.304Z,12.90
2018-05-03T02:38:10.054Z,12.90
2018-05-03T02:40:38.578Z,12.90
2018-05-03T02:43:06.353Z,12.90
2018-05-03T02:45:34.062Z,12.90
2018-05-03T02:48:02.576Z,12.90
2018-05-03T02:50:30.569Z,12.90
2018-05-03T02:52:58.498Z,12.90
2018-05-03T02:55:26.401Z,12.90
2018-05-03T02:58:11.815Z,12.90
2018-05-03T03:04:08.427Z,12.80
2018-05-03T03:06:53.943Z,12.80
2018-05-03T03:13:08.439Z,12.60
2018-05-03T03:15:49.324Z,12.60
2018-05-03T03:18:34.607Z,12.60
2018-05-03T03:21:19.917Z,12.60
2018-05-03T03:24:05.279Z,12.60
2018-05-03T03:29:55.551Z,12.60
2018-05-03T03:32:36.168Z,12.50
2018-05-03T03:38:20.749Z,12.40
2018-05-03T03:44:03.188Z,12.30
2018-05-03T03:46:31.182Z,12.20
2018-05-03T03:48:59.099Z,12.20
2018-05-03T03:51:27.087Z,12.10
2018-05-03T03:53:54.943Z,12.10
2018-05-03T03:56:22.863Z,12.10
2018-05-03T03:58:51.687Z,12.00
2018-05-03T04:01:19.602Z,12.00
2018-05-03T04:03:47.465Z,12.00
2018-05-03T04:06:15.444Z,12.00
2018-05-03T04:08:43.297Z,12.00
2018-05-03T04:11:11.139Z,12.00
2018-05-03T04:13:39.036Z,12.30
2018-05-03T04:16:06.859Z,12.70
2018-05-03T04:18:46.703Z,12.60
2018-05-03T04:21:26.467Z,12.50
2018-05-03T04:24:15.163Z,12.40
2018-05-03T04:26:43.827Z,12.30
2018-05-03T04:29:11.699Z,12.30
2018-05-03T04:31:39.643Z,12.20
2018-05-03T04:34:07.615Z,12.10
2018-05-03T04:36:35.537Z,12.10
2018-05-03T04:39:04.445Z,12.20
2018-05-03T04:41:33.131Z,12.10
2018-05-03T04:44:01.808Z,12.10
2018-05-03T04:46:29.750Z,12.10
2018-05-03T04:48:58.086Z,12.20
2018-05-03T04:51:26.828Z,12.20
2018-05-03T04:53:54.850Z,12.20
2018-05-03T04:56:22.749Z,12.20
2018-05-03T04:58:50.623Z,12.20
2018-05-03T05:01:18.698Z,12.20
2018-05-03T05:03:46.663Z,12.20
2018-05-03T05:06:14.445Z,12.20
2018-05-03T05:08:42.247Z,12.10
2018-05-03T05:11:10.066Z,12.20
2018-05-03T05:13:37.806Z,12.10
2018-05-03T05:16:05.724Z,12.20
2018-05-03T05:18:34.387Z,12.10
2018-05-03T05:21:02.264Z,12.10
2018-05-03T05:23:31.028Z,12.10
2018-05-03T05:25:59.996Z,12.20
2018-05-03T05:28:27.753Z,12.10
2018-05-03T05:30:55.557Z,12.10
2018-05-03T05:33:23.386Z,12.10
2018-05-03T05:35:51.262Z,12.10
2018-05-03T05:38:19.105Z,12.20
2018-05-03T05:40:46.999Z,12.20
2018-05-03T05:43:14.926Z,12.20
2018-05-03T05:45:42.865Z,12.30
2018-05-03T05:48:10.829Z,12.30
2018-05-03T05:50:38.755Z,12.40
2018-05-03T05:53:06.635Z,12.50
2018-05-03T05:55:34.493Z,12.50
2018-05-03T05:58:02.321Z,12.60
2018-05-03T06:00:30.975Z,12.80
2018-05-03T06:02:58.828Z,12.80
2018-05-03T06:05:26.676Z,12.90
2018-05-03T06:07:54.651Z,13.00
2018-05-03T06:10:22.614Z,13.10
2018-05-03T06:12:50.456Z,13.10
2018-05-03T06:15:18.459Z,13.20
2018-05-03T06:17:46.385Z,13.40
2018-05-03T06:20:14.997Z,13.70
2018-05-03T06:22:42.964Z,13.70
2018-05-03T06:25:10.836Z,13.80
2018-05-03T06:27:38.844Z,13.90
2018-05-03T06:30:06.783Z,14.00
2018-05-03T06:32:34.639Z,14.00
2018-05-03T06:35:02.479Z,14.00
2018-05-03T06:37:31.133Z,14.10
2018-05-03T06:39:58.976Z,14.10
2018-05-03T06:42:26.956Z,14.10
2018-05-03T06:44:55.697Z,14.40
2018-05-03T06:47:23.605Z,14.30
2018-05-03T06:49:51.537Z,14.50
2018-05-03T06:52:19.517Z,14.60
2018-05-03T06:54:47.427Z,14.70
2018-05-03T06:57:15.300Z,14.90
2018-05-03T06:59:43.261Z,15.00
2018-05-03T07:02:11.068Z,15.10
2018-05-03T07:04:39.701Z,15.40
2018-05-03T07:07:07.707Z,15.40
2018-05-03T07:09:36.260Z,15.70
2018-05-03T07:12:04.172Z,15.60
2018-05-03T07:14:32.136Z,15.70
2018-05-03T07:17:00.841Z,15.90
2018-05-03T07:19:28.724Z,15.90
2018-05-03T07:21:56.701Z,16.00
2018-05-03T07:24:24.569Z,16.20
2018-05-03T07:26:52.457Z,16.40
2018-05-03T07:29:20.414Z,16.50
2018-05-03T07:31:48.362Z,16.60
2018-05-03T07:34:16.250Z,16.70
2018-05-03T07:36:44.195Z,16.80
2018-05-03T07:39:12.064Z,16.90
2018-05-03T07:41:39.925Z,17.20
2018-05-03T07:44:08.189Z,17.30
2018-05-03T07:46:36.327Z,17.50
2018-05-03T07:49:04.159Z,17.60
2018-05-03T07:51:32.707Z,17.70
2018-05-03T07:54:00.585Z,17.90
2018-05-03T07:56:28.410Z,18.10
2018-05-03T07:58:56.339Z,18.20
2018-05-03T08:01:24.236Z,18.40
2018-05-03T08:03:52.268Z,18.60
2018-05-03T08:06:20.526Z,18.80
2018-05-03T08:08:48.814Z,19.10
2018-05-03T08:11:18.517Z,19.50
2018-05-03T08:13:47.171Z,19.40
2018-05-03T08:16:15.373Z,19.60
2018-05-03T08:18:43.451Z,19.80
2018-05-03T08:21:12.230Z,20.10
2018-05-03T08:23:40.297Z,20.20
2018-05-03T08:26:08.552Z,20.30
2018-05-03T08:28:37.125Z,20.40
2018-05-03T08:31:05.915Z,20.70
2018-05-03T08:33:33.971Z,20.70
2018-05-03T08:36:03.958Z,21.10
2018-05-03T08:38:32.611Z,21.10
2018-05-03T08:41:00.661Z,21.20
2018-05-03T08:43:32.399Z,21.50
2018-05-03T08:46:00.217Z,21.50
2018-05-03T08:48:28.043Z,21.70
2018-05-03T08:50:55.965Z,21.90
2018-05-03T08:53:23.884Z,22.10
2018-05-03T08:55:51.781Z,22.20
2018-05-03T08:58:19.640Z,22.20
2018-05-03T09:00:48.304Z,22.70
2018-05-03T09:03:16.256Z,22.60
2018-05-03T09:05:44.181Z,22.90
2018-05-03T09:08:12.052Z,23.10
2018-05-03T09:10:39.952Z,23.30
2018-05-03T09:13:07.851Z,23.50
2018-05-03T09:15:35.729Z,23.70
2018-05-03T09:18:04.369Z,24.10
2018-05-03T09:20:32.345Z,24.00
2018-05-03T09:23:00.176Z,24.20
2018-05-03T09:25:28.154Z,24.40
2018-05-03T09:27:56.877Z,24.50
2018-05-03T09:30:24.803Z,24.50
2018-05-03T09:32:52.607Z,24.70
2018-05-03T09:35:20.660Z,24.70
2018-05-03T09:37:49.336Z,24.70
2018-05-03T09:40:17.143Z,24.70
2018-05-03T09:42:45.057Z,24.90
2018-05-03T09:45:13.057Z,25.10
2018-05-03T09:47:40.969Z,25.00
2018-05-03T09:50:09.692Z,24.60
2018-05-03T09:52:37.607Z,24.60
2018-05-03T09:55:05.828Z,24.30
2018-05-03T09:57:33.712Z,24.10
2018-05-03T10:00:01.575Z,23.80
2018-05-03T10:02:29.435Z,23.40
2018-05-03T10:04:57.403Z,23.10
2018-05-03T10:07:25.313Z,22.90
2018-05-03T10:09:53.173Z,22.90
2018-05-03T10:12:21.160Z,23.10
2018-05-03T10:14:49.116Z,23.30
2018-05-03T10:17:16.985Z,23.50
2018-05-03T10:19:44.901Z,23.60
2018-05-03T10:22:12.750Z,23.80
2018-05-03T10:24:40.644Z,24.10
2018-05-03T10:27:08.580Z,24.30
2018-05-03T10:29:37.234Z,24.40
2018-05-03T10:32:05.137Z,24.40
2018-05-03T10:34:33.844Z,25.10
2018-05-03T10:37:01.680Z,25.10
2018-05-03T10:39:30.439Z,26.00
2018-05-03T10:41:58.439Z,25.90
2018-05-03T10:44:26.207Z,26.20
2018-05-03T10:46:54.914Z,26.80
2018-05-03T10:49:22.853Z,26.80
2018-05-03T10:51:51.493Z,26.90
2018-05-03T10:54:19.388Z,26.90
2018-05-03T10:56:47.298Z,26.90
2018-05-03T10:59:15.220Z,26.80
2018-05-03T11:01:43.081Z,26.70
2018-05-03T11:04:10.971Z,26.60
2018-05-03T11:06:38.867Z,26.50
2018-05-03T11:09:07.478Z,26.20
2018-05-03T11:11:35.450Z,26.20
2018-05-03T11:14:03.274Z,26.00
2018-05-03T11:16:31.969Z,25.70
2018-05-03T11:18:59.860Z,25.70
2018-05-03T11:21:27.816Z,25.40
2018-05-03T11:23:55.720Z,25.10
2018-05-03T11:26:23.850Z,24.90
2018-05-03T11:28:52.496Z,24.50
2018-05-03T11:31:20.403Z,24.50
2018-05-03T11:33:48.284Z,24.30
2018-05-03T11:36:16.484Z,24.00
2018-05-03T11:38:44.368Z,23.90
2018-05-03T11:41:13.129Z,23.50
2018-05-03T11:43:40.937Z,23.50
2018-05-03T11:46:08.841Z,23.50
2018-05-03T11:48:36.820Z,23.20
2018-05-03T11:51:04.724Z,23.00
2018-05-03T11:53:32.574Z,22.70
2018-05-03T11:56:00.561Z,22.60
2018-05-03T11:58:28.520Z,22.40
2018-05-03T12:00:56.424Z,22.30
2018-05-03T12:03:25.196Z,22.00
2018-05-03T12:05:53.245Z,22.00
2018-05-03T12:08:21.129Z,21.80
2018-05-03T12:10:49.069Z,21.80
2018-05-03T12:13:17.044Z,21.70
2018-05-03T12:15:45.008Z,21.80
2018-05-03T12:18:12.921Z,21.90
2018-05-03T12:20:40.754Z,21.90
2018-05-03T12:23:08.634Z,22.00
2018-05-03T12:25:36.584Z,22.10
2018-05-03T12:28:04.406Z,22.30
2018-05-03T12:30:33.067Z,22.70
2018-05-03T12:33:01.087Z,22.70
2018-05-03T12:35:28.993Z,23.10
2018-05-03T12:37:56.893Z,23.40
2018-05-03T12:40:25.529Z,24.10
2018-05-03T12:42:53.344Z,24.00
2018-05-03T12:45:21.999Z,24.80
2018-05-03T12:47:50.049Z,24.80
2018-05-03T12:50:18.078Z,25.10
2018-05-03T12:52:46.772Z,25.50
2018-05-03T12:55:14.713Z,25.50
2018-05-03T12:57:42.568Z,25.70
2018-05-03T13:00:10.660Z,25.90
2018-05-03T13:02:39.396Z,26.10
2018-05-03T13:05:07.110Z,26.00
2018-05-03T13:07:35.961Z,25.40
2018-05-03T13:10:03.800Z,25.40
2018-05-03T13:12:31.591Z,25.10
2018-05-03T13:14:59.303Z,24.70
2018-05-03T13:17:28.068Z,24.00
2018-05-03T13:19:56.014Z,24.00
2018-05-03T13:22:23.995Z,23.70
2018-05-03T13:24:51.913Z,23.50
2018-05-03T13:27:20.761Z,23.40
2018-05-03T13:29:49.867Z,23.70
2018-05-03T13:32:18.976Z,23.90
2018-05-03T13:34:48.073Z,24.30
2018-05-03T13:37:16.036Z,24.30
2018-05-03T13:39:45.623Z,25.10
2018-05-03T13:42:13.703Z,25.10
2018-05-03T13:44:41.638Z,25.40
2018-05-03T13:47:10.723Z,25.70
2018-05-03T13:49:38.624Z,25.90
2018-05-03T13:52:06.448Z,25.90
2018-05-03T13:54:34.360Z,25.80
2018-05-03T13:57:02.191Z,25.70
2018-05-03T13:59:30.064Z,25.60
2018-05-03T14:01:58.028Z,25.60
2018-05-03T14:04:25.823Z,25.80
2018-05-03T14:06:54.524Z,25.70
2018-05-03T14:09:22.443Z,25.80
2018-05-03T14:11:50.357Z,25.80
2018-05-03T14:14:19.725Z,25.90
2018-05-03T14:16:47.737Z,25.90
2018-05-03T14:19:16.443Z,26.20
2018-05-03T14:21:45.128Z,26.20
2018-05-03T14:24:13.808Z,26.20
2018-05-03T14:26:42.450Z,26.20
2018-05-03T14:29:10.550Z,26.20
2018-05-03T14:31:39.576Z,26.40
2018-05-03T14:34:07.503Z,26.40
2018-05-03T14:36:35.392Z,26.40
2018-05-03T14:39:04.258Z,26.10
2018-05-03T14:41:32.073Z,26.10
2018-05-03T14:43:59.991Z,25.90
2018-05-03T14:46:28.009Z,25.70
2018-05-03T14:48:55.897Z,25.50
2018-05-03T14:51:23.776Z,25.30
2018-05-03T14:53:51.740Z,25.10
2018-05-03T14:56:19.572Z,25.00
2018-05-03T14:58:47.305Z,24.80
2018-05-03T15:01:15.082Z,24.80
2018-05-03T15:03:42.835Z,24.60
2018-05-03T15:06:10.654Z,24.30
2018-05-03T15:08:38.547Z,24.10
2018-05-03T15:11:06.497Z,24.10
2018-05-03T15:13:34.371Z,23.90
2018-05-03T15:16:02.313Z,23.90
2018-05-03T15:18:30.277Z,23.90
2018-05-03T15:20:58.197Z,23.90
2018-05-03T15:23:26.080Z,23.70
2018-05-03T15:25:53.985Z,23.50
2018-05-03T15:28:21.834Z,23.40
2018-05-03T15:30:49.723Z,23.20
2018-05-03T15:33:17.559Z,23.20
2018-05-03T15:35:46.308Z,23.20
2018-05-03T15:38:14.808Z,23.20
2018-05-03T15:40:42.710Z,23.20
2018-05-03T15:43:11.783Z,23.00
2018-05-03T15:45:41.118Z,22.90
2018-05-03T15:48:10.021Z,22.80
2018-05-03T15:50:37.840Z,22.80
2018-05-03T15:53:06.497Z,22.90
2018-05-03T15:55:34.281Z,22.80
2018-05-03T15:58:01.963Z,23.00
2018-05-03T16:00:30.712Z,23.30
2018-05-03T16:02:59.455Z,23.50
2018-05-03T16:05:27.390Z,23.50
2018-05-03T16:07:55.352Z,23.70
2018-05-03T16:10:23.307Z,23.90
2018-05-03T16:12:51.115Z,23.90
2018-05-03T16:15:19.851Z,24.10
2018-05-03T16:17:47.721Z,24.10
2018-05-03T16:20:15.555Z,24.10
2018-05-03T16:22:43.610Z,24.10
2018-05-03T16:25:11.499Z,24.20
2018-05-03T16:27:39.443Z,24.20
2018-05-03T16:30:08.193Z,24.20
2018-05-03T16:32:36.100Z,24.20
2018-05-03T16:35:04.869Z,24.20
2018-05-03T16:37:33.583Z,24.10
2018-05-03T16:40:01.430Z,24.10
2018-05-03T16:42:30.074Z,23.90
2018-05-03T16:44:58.574Z,23.90
2018-05-03T16:47:26.537Z,23.90
2018-05-03T16:49:54.428Z,23.80
2018-05-03T16:52:22.611Z,23.70
2018-05-03T16:54:51.971Z,23.40
2018-05-03T16:57:19.881Z,23.40
2018-05-03T16:59:48.634Z,22.80
2018-05-03T17:02:16.483Z,22.80
2018-05-03T17:04:44.343Z,22.50
2018-05-03T17:07:12.305Z,22.10
2018-05-03T17:09:40.161Z,21.90
2018-05-03T17:12:08.068Z,21.60
2018-05-03T17:14:36.861Z,21.40
2018-05-03T17:17:04.749Z,21.40
2018-05-03T17:19:33.739Z,21.10
2018-05-03T17:22:01.921Z,21.00
2018-05-03T17:24:30.832Z,20.80
2018-05-03T17:26:59.501Z,20.60
2018-05-03T17:29:28.213Z,20.40
2018-05-03T17:31:56.100Z,20.40
2018-05-03T17:34:24.025Z,20.20
2018-05-03T17:36:52.723Z,20.00
2018-05-03T17:39:21.469Z,19.90
2018-05-03T17:41:49.412Z,19.90
2018-05-03T17:44:17.533Z,19.80
2018-05-03T17:46:45.513Z,19.70
2018-05-03T17:49:14.255Z,19.60
2018-05-03T17:51:42.250Z,19.50
2018-05-03T17:54:10.176Z,19.50
2018-05-03T17:56:38.115Z,19.40
2018-05-03T17:59:07.198Z,19.20
2018-05-03T18:01:36.116Z,19.00
2018-05-03T18:04:04.732Z,18.80
2018-05-03T18:06:32.795Z,18.80
2018-05-03T18:09:00.720Z,18.70
2018-05-03T18:11:29.340Z,18.50
2018-05-03T18:13:57.369Z,18.50
2018-05-03T18:16:26.047Z,18.30
2018-05-03T18:18:54.242Z,18.30
2018-05-03T18:21:23.106Z,18.10
2018-05-03T18:23:50.975Z,18.10
2018-05-03T18:26:19.030Z,18.00
2018-05-03T18:28:47.821Z,17.90
2018-05-03T18:31:15.835Z,17.90
2018-05-03T18:33:44.549Z,17.80
2018-05-03T18:36:12.486Z,17.80
2018-05-03T18:38:40.331Z,17.80
2018-05-03T18:41:08.948Z,17.70
2018-05-03T18:43:36.868Z,17.60
2018-05-03T18:46:04.776Z,17.60
2018-05-03T18:48:33.483Z,17.60
2018-05-03T18:51:01.387Z,17.50
2018-05-03T18:53:29.296Z,17.60
2018-05-03T18:55:57.549Z,17.50
2018-05-03T18:58:25.636Z,17.40
2018-05-03T19:00:53.585Z,17.40
2018-05-03T19:03:21.496Z,17.30
2018-05-03T19:05:49.732Z,17.20
2018-05-03T19:08:18.689Z,17.10
2018-05-03T19:10:46.593Z,17.10
2018-05-03T19:13:15.579Z,17.10
2018-05-03T19:15:43.480Z,17.10
2018-05-03T19:18:12.102Z,17.10
2018-05-03T19:20:40.208Z,17.00
2018-05-03T19:23:09.027Z,17.10
2018-05-03T19:25:36.901Z,17.00
2018-05-03T19:28:04.963Z,17.00
2018-05-03T19:30:33.715Z,17.00
2018-05-03T19:33:02.620Z,16.90
2018-05-03T19:35:30.718Z,17.00
2018-05-03T19:38:00.822Z,17.00
2018-05-03T19:40:29.685Z,17.00
2018-05-03T19:42:57.632Z,16.90
2018-05-03T19:45:25.642Z,17.00
2018-05-03T19:47:53.525Z,16.90
2018-05-03T19:50:22.189Z,16.90
2018-05-03T19:52:49.941Z,16.90
2018-05-03T19:55:17.715Z,16.80
2018-05-03T19:57:45.518Z,16.80
2018-05-03T20:00:13.321Z,16.90
2018-05-03T20:02:41.326Z,16.90
2018-05-03T20:05:10.108Z,16.80
2018-05-03T20:07:37.932Z,16.70
2018-05-03T20:10:05.841Z,16.70
2018-05-03T20:12:33.791Z,16.70
2018-05-03T20:15:01.638Z,16.60
2018-05-03T20:17:29.602Z,16.60
2018-05-03T20:19:57.678Z,16.60
2018-05-03T20:22:25.726Z,16.60
2018-05-03T20:24:53.665Z,16.60
2018-05-03T20:27:21.556Z,16.50
2018-05-03T20:29:50.242Z,16.50
2018-05-03T20:32:18.831Z,16.50
2018-05-03T20:34:46.783Z,16.50
2018-05-03T20:37:15.382Z,16.50
2018-05-03T20:39:43.427Z,16.50
2018-05-03T20:42:11.553Z,16.50
2018-05-03T20:44:39.476Z,16.50
2018-05-03T20:47:08.732Z,16.60
2018-05-03T20:49:36.743Z,16.50
2018-05-03T20:52:05.519Z,16.60
2018-05-03T20:54:33.414Z,16.60
2018-05-03T20:57:02.191Z,16.60
2018-05-03T20:59:30.896Z,16.50
2018-05-03T21:01:58.917Z,16.50
2018-05-03T21:04:26.808Z,16.50
2018-05-03T21:06:55.519Z,16.40
2018-05-03T21:09:23.438Z,16.40
2018-05-03T21:11:51.379Z,16.40
2018-05-03T21:14:19.236Z,16.40
2018-05-03T21:16:47.070Z,16.30
2018-05-03T21:19:15.809Z,16.20
2018-05-03T21:21:43.736Z,16.20
2018-05-03T21:24:12.664Z,16.20
2018-05-03T21:26:40.870Z,16.20
2018-05-03T21:29:09.306Z,16.20
2018-05-03T21:31:37.355Z,16.10
2018-05-03T21:34:05.486Z,16.00
2018-05-03T21:36:33.713Z,16.00
2018-05-03T21:39:01.769Z,16.00
2018-05-03T21:41:30.584Z,16.00
2018-05-03T21:43:58.549Z,16.00
2018-05-03T21:46:26.680Z,15.90
2018-05-03T21:48:54.675Z,15.90
2018-05-03T21:51:22.613Z,15.90
2018-05-03T21:53:52.285Z,15.90
2018-05-03T21:56:20.203Z,15.90
2018-05-03T21:58:48.069Z,15.80
2018-05-03T22:01:16.102Z,15.80
2018-05-03T22:03:44.107Z,15.80
2018-05-03T22:06:12.039Z,15.80
2018-05-03T22:08:39.979Z,15.80
2018-05-03T22:11:07.954Z,15.70
2018-05-03T22:13:35.784Z,15.70
2018-05-03T22:16:04.360Z,15.60
2018-05-03T22:18:32.448Z,15.60
2018-05-03T22:21:01.063Z,15.60
2018-05-03T22:23:28.973Z,15.50
2018-05-03T22:25:57.084Z,15.50
2018-05-03T22:28:25.060Z,15.50
2018-05-03T22:30:53.260Z,15.50
2018-05-03T22:33:21.239Z,15.50
2018-05-03T22:35:49.203Z,15.50
2018-05-03T22:38:17.120Z,15.50
2018-05-03T22:40:45.844Z,15.50
2018-05-03T22:43:13.732Z,15.50
2018-05-03T22:45:41.579Z,15.40
2018-05-03T22:48:09.507Z,15.40
2018-05-03T22:50:38.256Z,15.40
2018-05-03T22:53:06.132Z,15.40
2018-05-03T22:55:34.120Z,15.30
2018-05-03T22:58:01.941Z,15.30
2018-05-03T23:00:29.853Z,15.30
2018-05-03T23:02:57.746Z,15.30
2018-05-03T23:05:25.648Z,15.30
2018-05-03T23:07:53.557Z,15.20
2018-05-03T23:10:21.530Z,15.20
2018-05-03T23:12:49.416Z,15.30
2018-05-03T23:15:18.135Z,15.20
2018-05-03T23:17:46.082Z,15.20
2018-05-03T23:20:14.716Z,15.20
2018-05-03T23:22:42.612Z,15.20
2018-05-03T23:25:11.339Z,15.20
2018-05-03T23:27:39.383Z,15.20
2018-05-03T23:30:07.250Z,15.20
2018-05-03T23:32:35.913Z,15.10
2018-05-03T23:35:03.769Z,15.10
2018-05-03T23:37:31.605Z,15.10
2018-05-03T23:39:59.550Z,15.10
2018-05-03T23:42:28.222Z,15.00
2018-05-03T23:44:56.879Z,15.00
2018-05-03T23:47:24.789Z,15.00
2018-05-03T23:49:52.732Z,15.00
2018-05-03T23:52:21.426Z,15.00
2018-05-03T23:54:50.424Z,14.90
2018-05-03T23:57:19.100Z,14.90
2018-05-03T23:59:47.498Z,14.90
